sensor_id;sensor_type;location;lat;lon;timestamp;P1;durP1;ratioP1;P2;durP2;ratioP2
69305;SDS011;56427;51.580;4.656;2023-06-22T00:00:49;6.13;;;3.78;;
69305;SDS011;56427;51.580;4.656;2023-06-22T00:03:15;6.45;;;4.28;;
69305;SDS011;56427;51.580;4.656;2023-06-22T00:05:42;6.53;;;4.10;;
69305;SDS011;56427;51.580;4.656;2023-06-22T00:08:07;5.83;;;4.00;;
69305;SDS011;56427;51.580;4.656;2023-06-22T00:10:32;6.47;;;3.77;;
69305;SDS011;56427;51.580;4.656;2023-06-22T00:12:58;8.60;;;4.30;;
69305;SDS011;56427;51.580;4.656;2023-06-22T00:15:23;8.00;;;4.43;;
69305;SDS011;56427;51.580;4.656;2023-06-22T00:17:49;6.23;;;4.40;;
69305;SDS011;56427;51.580;4.656;2023-06-22T00:20:15;8.85;;;4.88;;
69305;SDS011;56427;51.580;4.656;2023-06-22T00:22:42;8.68;;;4.57;;
69305;SDS011;56427;51.580;4.656;2023-06-22T00:25:08;7.47;;;4.60;;
69305;SDS011;56427;51.580;4.656;2023-06-22T00:27:34;7.77;;;5.10;;
69305;SDS011;56427;51.580;4.656;2023-06-22T00:30:00;9.90;;;4.43;;
69305;SDS011;56427;51.580;4.656;2023-06-22T00:32:27;8.50;;;4.88;;
69305;SDS011;56427;51.580;4.656;2023-06-22T00:34:52;9.63;;;5.00;;
69305;SDS011;56427;51.580;4.656;2023-06-22T00:37:18;7.50;;;4.87;;
69305;SDS011;56427;51.580;4.656;2023-06-22T00:39:43;11.53;;;5.50;;
69305;SDS011;56427;51.580;4.656;2023-06-22T00:42:09;10.23;;;5.07;;
69305;SDS011;56427;51.580;4.656;2023-06-22T00:44:35;9.90;;;5.80;;
69305;SDS011;56427;51.580;4.656;2023-06-22T00:47:01;9.88;;;5.50;;
69305;SDS011;56427;51.580;4.656;2023-06-22T00:49:27;9.07;;;5.38;;
69305;SDS011;56427;51.580;4.656;2023-06-22T00:51:52;9.77;;;4.93;;
69305;SDS011;56427;51.580;4.656;2023-06-22T00:54:18;7.00;;;4.90;;
69305;SDS011;56427;51.580;4.656;2023-06-22T00:56:49;8.50;;;5.40;;
69305;SDS011;56427;51.580;4.656;2023-06-22T00:59:24;8.13;;;5.10;;
69305;SDS011;56427;51.580;4.656;2023-06-22T01:01:51;7.72;;;5.25;;
69305;SDS011;56427;51.580;4.656;2023-06-22T01:04:16;9.57;;;5.78;;
69305;SDS011;56427;51.580;4.656;2023-06-22T01:06:47;8.65;;;5.78;;
69305;SDS011;56427;51.580;4.656;2023-06-22T01:09:22;9.20;;;5.50;;
69305;SDS011;56427;51.580;4.656;2023-06-22T01:11:57;9.50;;;5.55;;
69305;SDS011;56427;51.580;4.656;2023-06-22T01:17:03;10.80;;;6.25;;
69305;SDS011;56427;51.580;4.656;2023-06-22T01:22:04;9.47;;;5.73;;
69305;SDS011;56427;51.580;4.656;2023-06-22T01:30:11;11.02;;;6.72;;
69305;SDS011;56427;51.580;4.656;2023-06-22T01:32:41;10.98;;;7.05;;
69305;SDS011;56427;51.580;4.656;2023-06-22T01:35:08;12.70;;;6.57;;
69305;SDS011;56427;51.580;4.656;2023-06-22T01:37:35;10.10;;;6.90;;
69305;SDS011;56427;51.580;4.656;2023-06-22T01:40:02;11.85;;;7.50;;
69305;SDS011;56427;51.580;4.656;2023-06-22T01:42:30;14.48;;;8.15;;
69305;SDS011;56427;51.580;4.656;2023-06-22T01:44:56;11.87;;;7.87;;
69305;SDS011;56427;51.580;4.656;2023-06-22T01:47:23;12.18;;;7.25;;
69305;SDS011;56427;51.580;4.656;2023-06-22T01:49:49;12.23;;;7.82;;
69305;SDS011;56427;51.580;4.656;2023-06-22T01:52:16;10.98;;;7.43;;
69305;SDS011;56427;51.580;4.656;2023-06-22T01:54:43;12.55;;;8.57;;
69305;SDS011;56427;51.580;4.656;2023-06-22T01:57:08;12.77;;;8.80;;
69305;SDS011;56427;51.580;4.656;2023-06-22T01:59:37;13.18;;;8.70;;
69305;SDS011;56427;51.580;4.656;2023-06-22T02:02:09;14.52;;;9.27;;
69305;SDS011;56427;51.580;4.656;2023-06-22T02:04:57;15.03;;;9.27;;
69305;SDS011;56427;51.580;4.656;2023-06-22T02:07:29;16.15;;;9.77;;
69305;SDS011;56427;51.580;4.656;2023-06-22T02:09:59;16.88;;;9.27;;
69305;SDS011;56427;51.580;4.656;2023-06-22T02:12:26;15.20;;;9.77;;
69305;SDS011;56427;51.580;4.656;2023-06-22T02:14:54;14.27;;;9.23;;
69305;SDS011;56427;51.580;4.656;2023-06-22T02:17:20;14.47;;;9.90;;
69305;SDS011;56427;51.580;4.656;2023-06-22T02:19:46;15.27;;;10.40;;
69305;SDS011;56427;51.580;4.656;2023-06-22T02:22:11;15.47;;;10.23;;
69305;SDS011;56427;51.580;4.656;2023-06-22T02:24:38;16.25;;;10.60;;
69305;SDS011;56427;51.580;4.656;2023-06-22T02:27:04;17.07;;;10.40;;
69305;SDS011;56427;51.580;4.656;2023-06-22T02:29:32;17.05;;;10.48;;
69305;SDS011;56427;51.580;4.656;2023-06-22T02:31:57;15.43;;;10.70;;
69305;SDS011;56427;51.580;4.656;2023-06-22T02:34:23;16.55;;;10.63;;
69305;SDS011;56427;51.580;4.656;2023-06-22T02:36:49;14.40;;;10.07;;
69305;SDS011;56427;51.580;4.656;2023-06-22T02:39:24;15.55;;;10.27;;
69305;SDS011;56427;51.580;4.656;2023-06-22T02:41:49;14.68;;;9.65;;
69305;SDS011;56427;51.580;4.656;2023-06-22T02:44:16;13.53;;;9.67;;
69305;SDS011;56427;51.580;4.656;2023-06-22T02:46:42;16.58;;;11.48;;
69305;SDS011;56427;51.580;4.656;2023-06-22T02:52:29;15.05;;;10.20;;
69305;SDS011;56427;51.580;4.656;2023-06-22T02:54:54;19.13;;;13.07;;
69305;SDS011;56427;51.580;4.656;2023-06-22T02:57:20;19.27;;;14.10;;
69305;SDS011;56427;51.580;4.656;2023-06-22T02:59:45;19.27;;;13.13;;
69305;SDS011;56427;51.580;4.656;2023-06-22T03:02:11;24.83;;;14.90;;
69305;SDS011;56427;51.580;4.656;2023-06-22T03:04:36;21.30;;;14.23;;
69305;SDS011;56427;51.580;4.656;2023-06-22T03:07:02;20.83;;;14.83;;
69305;SDS011;56427;51.580;4.656;2023-06-22T03:09:28;20.52;;;14.30;;
69305;SDS011;56427;51.580;4.656;2023-06-22T03:11:54;20.43;;;14.57;;
69305;SDS011;56427;51.580;4.656;2023-06-22T03:14:20;20.02;;;14.68;;
69305;SDS011;56427;51.580;4.656;2023-06-22T03:16:45;24.55;;;15.80;;
69305;SDS011;56427;51.580;4.656;2023-06-22T03:19:10;25.10;;;15.20;;
69305;SDS011;56427;51.580;4.656;2023-06-22T03:21:36;27.67;;;16.20;;
69305;SDS011;56427;51.580;4.656;2023-06-22T03:24:03;24.40;;;16.15;;
69305;SDS011;56427;51.580;4.656;2023-06-22T03:26:29;21.50;;;15.13;;
69305;SDS011;56427;51.580;4.656;2023-06-22T03:28:55;22.37;;;15.40;;
69305;SDS011;56427;51.580;4.656;2023-06-22T03:31:20;25.87;;;16.80;;
69305;SDS011;56427;51.580;4.656;2023-06-22T03:33:47;21.60;;;15.15;;
69305;SDS011;56427;51.580;4.656;2023-06-22T03:36:14;24.00;;;16.02;;
69305;SDS011;56427;51.580;4.656;2023-06-22T03:38:41;21.57;;;15.87;;
69305;SDS011;56427;51.580;4.656;2023-06-22T03:41:06;23.23;;;15.95;;
69305;SDS011;56427;51.580;4.656;2023-06-22T03:43:32;23.57;;;16.27;;
69305;SDS011;56427;51.580;4.656;2023-06-22T03:45:57;23.87;;;16.30;;
69305;SDS011;56427;51.580;4.656;2023-06-22T03:48:23;22.50;;;15.80;;
69305;SDS011;56427;51.580;4.656;2023-06-22T03:50:48;25.57;;;16.37;;
69305;SDS011;56427;51.580;4.656;2023-06-22T03:53:14;24.30;;;15.80;;
69305;SDS011;56427;51.580;4.656;2023-06-22T03:55:42;23.33;;;14.87;;
69305;SDS011;56427;51.580;4.656;2023-06-22T03:58:14;23.00;;;16.33;;
69305;SDS011;56427;51.580;4.656;2023-06-22T04:00:39;27.83;;;17.57;;
69305;SDS011;56427;51.580;4.656;2023-06-22T04:03:05;26.10;;;17.17;;
69305;SDS011;56427;51.580;4.656;2023-06-22T04:05:32;21.67;;;15.57;;
69305;SDS011;56427;51.580;4.656;2023-06-22T04:08:18;23.30;;;16.05;;
69305;SDS011;56427;51.580;4.656;2023-06-22T04:10:43;22.77;;;15.37;;
69305;SDS011;56427;51.580;4.656;2023-06-22T04:13:09;21.43;;;15.03;;
69305;SDS011;56427;51.580;4.656;2023-06-22T04:15:34;21.77;;;14.10;;
69305;SDS011;56427;51.580;4.656;2023-06-22T04:17:59;20.10;;;15.17;;
69305;SDS011;56427;51.580;4.656;2023-06-22T04:20:25;22.80;;;14.77;;
69305;SDS011;56427;51.580;4.656;2023-06-22T04:22:52;23.13;;;14.80;;
69305;SDS011;56427;51.580;4.656;2023-06-22T04:25:18;25.03;;;16.37;;
69305;SDS011;56427;51.580;4.656;2023-06-22T04:27:44;18.80;;;14.35;;
69305;SDS011;56427;51.580;4.656;2023-06-22T04:30:10;19.50;;;13.63;;
69305;SDS011;56427;51.580;4.656;2023-06-22T04:32:35;20.65;;;13.15;;
69305;SDS011;56427;51.580;4.656;2023-06-22T04:35:01;19.27;;;13.67;;
69305;SDS011;56427;51.580;4.656;2023-06-22T04:37:31;19.73;;;13.00;;
69305;SDS011;56427;51.580;4.656;2023-06-22T04:39:56;18.57;;;12.83;;
69305;SDS011;56427;51.580;4.656;2023-06-22T04:42:22;18.90;;;13.40;;
69305;SDS011;56427;51.580;4.656;2023-06-22T04:44:47;19.55;;;13.82;;
69305;SDS011;56427;51.580;4.656;2023-06-22T04:47:13;16.50;;;12.90;;
69305;SDS011;56427;51.580;4.656;2023-06-22T04:49:38;19.57;;;13.10;;
69305;SDS011;56427;51.580;4.656;2023-06-22T04:52:08;17.65;;;13.20;;
69305;SDS011;56427;51.580;4.656;2023-06-22T04:54:35;19.55;;;12.77;;
69305;SDS011;56427;51.580;4.656;2023-06-22T04:57:04;18.85;;;13.43;;
69305;SDS011;56427;51.580;4.656;2023-06-22T04:59:34;17.90;;;12.63;;
69305;SDS011;56427;51.580;4.656;2023-06-22T05:02:01;22.77;;;14.50;;
69305;SDS011;56427;51.580;4.656;2023-06-22T05:04:29;18.27;;;11.68;;
69305;SDS011;56427;51.580;4.656;2023-06-22T05:07:01;18.30;;;13.10;;
69305;SDS011;56427;51.580;4.656;2023-06-22T05:09:27;19.25;;;12.95;;
69305;SDS011;56427;51.580;4.656;2023-06-22T05:11:53;17.03;;;12.17;;
69305;SDS011;56427;51.580;4.656;2023-06-22T05:14:19;18.88;;;12.77;;
69305;SDS011;56427;51.580;4.656;2023-06-22T05:16:45;18.27;;;12.48;;
69305;SDS011;56427;51.580;4.656;2023-06-22T05:19:10;19.57;;;12.33;;
69305;SDS011;56427;51.580;4.656;2023-06-22T05:21:36;17.40;;;12.15;;
69305;SDS011;56427;51.580;4.656;2023-06-22T05:24:02;16.60;;;11.55;;
69305;SDS011;56427;51.580;4.656;2023-06-22T05:26:29;15.25;;;12.13;;
69305;SDS011;56427;51.580;4.656;2023-06-22T05:28:56;20.03;;;12.30;;
69305;SDS011;56427;51.580;4.656;2023-06-22T05:31:22;17.38;;;12.05;;
69305;SDS011;56427;51.580;4.656;2023-06-22T05:33:48;15.85;;;12.07;;
69305;SDS011;56427;51.580;4.656;2023-06-22T05:36:16;16.80;;;12.20;;
69305;SDS011;56427;51.580;4.656;2023-06-22T05:38:41;17.05;;;11.63;;
69305;SDS011;56427;51.580;4.656;2023-06-22T05:41:07;17.03;;;11.30;;
69305;SDS011;56427;51.580;4.656;2023-06-22T05:43:33;16.92;;;11.63;;
69305;SDS011;56427;51.580;4.656;2023-06-22T05:45:59;16.73;;;10.87;;
69305;SDS011;56427;51.580;4.656;2023-06-22T05:48:26;14.02;;;11.05;;
69305;SDS011;56427;51.580;4.656;2023-06-22T05:50:51;18.70;;;11.97;;
69305;SDS011;56427;51.580;4.656;2023-06-22T05:53:16;16.33;;;11.70;;
69305;SDS011;56427;51.580;4.656;2023-06-22T05:55:42;18.00;;;11.88;;
69305;SDS011;56427;51.580;4.656;2023-06-22T05:58:07;15.77;;;11.47;;
69305;SDS011;56427;51.580;4.656;2023-06-22T06:00:33;16.45;;;11.82;;
69305;SDS011;56427;51.580;4.656;2023-06-22T06:02:59;18.20;;;10.73;;
69305;SDS011;56427;51.580;4.656;2023-06-22T06:05:34;15.48;;;10.85;;
69305;SDS011;56427;51.580;4.656;2023-06-22T06:08:02;17.38;;;11.57;;
69305;SDS011;56427;51.580;4.656;2023-06-22T06:10:29;15.73;;;11.52;;
69305;SDS011;56427;51.580;4.656;2023-06-22T06:12:55;16.30;;;11.77;;
69305;SDS011;56427;51.580;4.656;2023-06-22T06:15:21;17.02;;;11.43;;
69305;SDS011;56427;51.580;4.656;2023-06-22T06:17:50;19.40;;;10.73;;
69305;SDS011;56427;51.580;4.656;2023-06-22T06:20:18;16.15;;;11.45;;
69305;SDS011;56427;51.580;4.656;2023-06-22T06:22:45;15.68;;;10.90;;
69305;SDS011;56427;51.580;4.656;2023-06-22T06:25:11;15.50;;;10.77;;
69305;SDS011;56427;51.580;4.656;2023-06-22T06:27:41;14.30;;;10.55;;
69305;SDS011;56427;51.580;4.656;2023-06-22T06:30:07;14.50;;;10.43;;
69305;SDS011;56427;51.580;4.656;2023-06-22T06:32:33;14.77;;;10.68;;
69305;SDS011;56427;51.580;4.656;2023-06-22T06:34:58;18.33;;;11.10;;
69305;SDS011;56427;51.580;4.656;2023-06-22T06:37:24;16.57;;;10.17;;
69305;SDS011;56427;51.580;4.656;2023-06-22T06:39:49;14.37;;;9.97;;
69305;SDS011;56427;51.580;4.656;2023-06-22T06:42:14;14.17;;;10.17;;
69305;SDS011;56427;51.580;4.656;2023-06-22T06:44:40;18.15;;;10.55;;
69305;SDS011;56427;51.580;4.656;2023-06-22T06:47:05;19.23;;;9.73;;
69305;SDS011;56427;51.580;4.656;2023-06-22T06:49:30;14.33;;;10.63;;
69305;SDS011;56427;51.580;4.656;2023-06-22T06:51:58;15.00;;;9.20;;
69305;SDS011;56427;51.580;4.656;2023-06-22T06:54:24;13.57;;;9.67;;
69305;SDS011;56427;51.580;4.656;2023-06-22T06:56:49;13.03;;;9.93;;
69305;SDS011;56427;51.580;4.656;2023-06-22T06:59:14;15.65;;;9.88;;
69305;SDS011;56427;51.580;4.656;2023-06-22T07:01:40;12.33;;;9.20;;
69305;SDS011;56427;51.580;4.656;2023-06-22T07:04:06;13.48;;;9.50;;
69305;SDS011;56427;51.580;4.656;2023-06-22T07:06:32;12.63;;;8.43;;
69305;SDS011;56427;51.580;4.656;2023-06-22T07:08:58;11.50;;;8.60;;
69305;SDS011;56427;51.580;4.656;2023-06-22T07:11:24;15.68;;;9.98;;
69305;SDS011;56427;51.580;4.656;2023-06-22T07:13:50;14.27;;;10.43;;
69305;SDS011;56427;51.580;4.656;2023-06-22T07:16:15;14.20;;;9.43;;
69305;SDS011;56427;51.580;4.656;2023-06-22T07:18:41;11.70;;;8.20;;
69305;SDS011;56427;51.580;4.656;2023-06-22T07:21:06;13.00;;;8.57;;
69305;SDS011;56427;51.580;4.656;2023-06-22T07:23:32;10.45;;;8.73;;
69305;SDS011;56427;51.580;4.656;2023-06-22T07:25:57;10.87;;;7.67;;
69305;SDS011;56427;51.580;4.656;2023-06-22T07:28:27;13.40;;;7.70;;
69305;SDS011;56427;51.580;4.656;2023-06-22T07:30:52;13.73;;;8.30;;
69305;SDS011;56427;51.580;4.656;2023-06-22T07:33:18;10.43;;;7.87;;
69305;SDS011;56427;51.580;4.656;2023-06-22T07:35:43;10.67;;;7.23;;
69305;SDS011;56427;51.580;4.656;2023-06-22T07:38:09;10.82;;;7.72;;
69305;SDS011;56427;51.580;4.656;2023-06-22T07:40:34;10.40;;;7.23;;
69305;SDS011;56427;51.580;4.656;2023-06-22T07:43:01;10.45;;;6.95;;
69305;SDS011;56427;51.580;4.656;2023-06-22T07:45:28;10.00;;;7.10;;
69305;SDS011;56427;51.580;4.656;2023-06-22T07:47:54;9.93;;;6.90;;
69305;SDS011;56427;51.580;4.656;2023-06-22T07:50:19;11.13;;;6.32;;
69305;SDS011;56427;51.580;4.656;2023-06-22T07:52:44;12.97;;;6.60;;
69305;SDS011;56427;51.580;4.656;2023-06-22T07:55:10;11.57;;;6.40;;
69305;SDS011;56427;51.580;4.656;2023-06-22T07:57:36;9.67;;;5.40;;
69305;SDS011;56427;51.580;4.656;2023-06-22T08:00:04;10.70;;;5.87;;
69305;SDS011;56427;51.580;4.656;2023-06-22T08:02:41;15.05;;;6.88;;
69305;SDS011;56427;51.580;4.656;2023-06-22T08:05:10;12.57;;;5.90;;
69305;SDS011;56427;51.580;4.656;2023-06-22T08:07:36;11.13;;;6.23;;
69305;SDS011;56427;51.580;4.656;2023-06-22T08:10:02;9.75;;;5.95;;
69305;SDS011;56427;51.580;4.656;2023-06-22T08:12:28;8.32;;;5.72;;
69305;SDS011;56427;51.580;4.656;2023-06-22T08:14:54;9.87;;;5.60;;
69305;SDS011;56427;51.580;4.656;2023-06-22T08:17:19;9.83;;;5.30;;
69305;SDS011;56427;51.580;4.656;2023-06-22T08:19:45;10.45;;;5.50;;
69305;SDS011;56427;51.580;4.656;2023-06-22T08:22:10;8.20;;;4.57;;
69305;SDS011;56427;51.580;4.656;2023-06-22T08:24:35;7.00;;;5.00;;
69305;SDS011;56427;51.580;4.656;2023-06-22T08:27:01;9.37;;;5.23;;
69305;SDS011;56427;51.580;4.656;2023-06-22T08:29:26;8.93;;;5.20;;
69305;SDS011;56427;51.580;4.656;2023-06-22T08:31:51;7.55;;;5.43;;
69305;SDS011;56427;51.580;4.656;2023-06-22T08:34:17;9.03;;;5.83;;
69305;SDS011;56427;51.580;4.656;2023-06-22T08:36:46;8.95;;;6.00;;
69305;SDS011;56427;51.580;4.656;2023-06-22T08:39:18;10.02;;;5.97;;
69305;SDS011;56427;51.580;4.656;2023-06-22T08:41:45;8.83;;;6.23;;
69305;SDS011;56427;51.580;4.656;2023-06-22T08:44:13;9.82;;;6.13;;
69305;SDS011;56427;51.580;4.656;2023-06-22T08:46:38;9.65;;;6.55;;
69305;SDS011;56427;51.580;4.656;2023-06-22T08:49:05;10.70;;;7.00;;
69305;SDS011;56427;51.580;4.656;2023-06-22T08:51:31;12.32;;;7.65;;
69305;SDS011;56427;51.580;4.656;2023-06-22T08:53:57;11.63;;;7.27;;
69305;SDS011;56427;51.580;4.656;2023-06-22T08:56:22;9.88;;;7.55;;
69305;SDS011;56427;51.580;4.656;2023-06-22T08:58:48;14.47;;;8.00;;
69305;SDS011;56427;51.580;4.656;2023-06-22T09:01:13;11.57;;;7.33;;
69305;SDS011;56427;51.580;4.656;2023-06-22T09:03:40;11.40;;;8.18;;
69305;SDS011;56427;51.580;4.656;2023-06-22T09:06:06;13.10;;;7.70;;
69305;SDS011;56427;51.580;4.656;2023-06-22T09:08:31;12.20;;;8.07;;
69305;SDS011;56427;51.580;4.656;2023-06-22T09:10:57;11.90;;;8.23;;
69305;SDS011;56427;51.580;4.656;2023-06-22T09:13:22;19.60;;;9.00;;
69305;SDS011;56427;51.580;4.656;2023-06-22T09:15:47;14.17;;;10.20;;
69305;SDS011;56427;51.580;4.656;2023-06-22T09:18:13;11.83;;;9.63;;
69305;SDS011;56427;51.580;4.656;2023-06-22T09:20:39;12.37;;;9.20;;
69305;SDS011;56427;51.580;4.656;2023-06-22T09:23:04;12.25;;;9.10;;
69305;SDS011;56427;51.580;4.656;2023-06-22T09:25:29;14.17;;;9.80;;
69305;SDS011;56427;51.580;4.656;2023-06-22T09:27:55;17.60;;;11.17;;
69305;SDS011;56427;51.580;4.656;2023-06-22T09:30:22;14.65;;;11.18;;
69305;SDS011;56427;51.580;4.656;2023-06-22T09:32:47;16.33;;;10.87;;
69305;SDS011;56427;51.580;4.656;2023-06-22T09:35:13;16.97;;;12.23;;
69305;SDS011;56427;51.580;4.656;2023-06-22T09:37:38;19.27;;;11.48;;
69305;SDS011;56427;51.580;4.656;2023-06-22T09:40:05;20.55;;;10.90;;
69305;SDS011;56427;51.580;4.656;2023-06-22T09:42:34;15.53;;;11.37;;
69305;SDS011;56427;51.580;4.656;2023-06-22T09:45:00;17.77;;;12.50;;
69305;SDS011;56427;51.580;4.656;2023-06-22T09:47:26;19.90;;;12.97;;
69305;SDS011;56427;51.580;4.656;2023-06-22T09:49:52;19.63;;;12.60;;
69305;SDS011;56427;51.580;4.656;2023-06-22T09:52:19;17.65;;;13.15;;
69305;SDS011;56427;51.580;4.656;2023-06-22T09:54:44;15.87;;;13.17;;
69305;SDS011;56427;51.580;4.656;2023-06-22T09:57:10;23.07;;;14.23;;
69305;SDS011;56427;51.580;4.656;2023-06-22T09:59:35;20.13;;;14.00;;
69305;SDS011;56427;51.580;4.656;2023-06-22T10:02:00;20.20;;;14.70;;
69305;SDS011;56427;51.580;4.656;2023-06-22T10:04:26;17.17;;;13.85;;
69305;SDS011;56427;51.580;4.656;2023-06-22T10:06:51;20.07;;;14.43;;
69305;SDS011;56427;51.580;4.656;2023-06-22T10:09:17;19.30;;;14.27;;
69305;SDS011;56427;51.580;4.656;2023-06-22T10:11:42;21.60;;;14.60;;
69305;SDS011;56427;51.580;4.656;2023-06-22T10:14:07;18.70;;;14.70;;
69305;SDS011;56427;51.580;4.656;2023-06-22T10:16:33;22.30;;;14.60;;
69305;SDS011;56427;51.580;4.656;2023-06-22T10:19:00;21.08;;;15.77;;
69305;SDS011;56427;51.580;4.656;2023-06-22T10:21:26;22.55;;;15.98;;
69305;SDS011;56427;51.580;4.656;2023-06-22T10:23:53;20.43;;;15.60;;
69305;SDS011;56427;51.580;4.656;2023-06-22T10:26:19;22.48;;;15.23;;
69305;SDS011;56427;51.580;4.656;2023-06-22T10:28:44;20.10;;;14.90;;
69305;SDS011;56427;51.580;4.656;2023-06-22T10:31:09;21.17;;;15.17;;
69305;SDS011;56427;51.580;4.656;2023-06-22T10:33:35;22.33;;;16.07;;
69305;SDS011;56427;51.580;4.656;2023-06-22T10:36:00;19.27;;;14.98;;
69305;SDS011;56427;51.580;4.656;2023-06-22T10:38:25;19.90;;;14.70;;
69305;SDS011;56427;51.580;4.656;2023-06-22T10:40:51;20.00;;;15.33;;
69305;SDS011;56427;51.580;4.656;2023-06-22T10:43:16;21.87;;;15.73;;
69305;SDS011;56427;51.580;4.656;2023-06-22T10:45:42;21.35;;;14.77;;
69305;SDS011;56427;51.580;4.656;2023-06-22T10:48:07;23.07;;;15.73;;
69305;SDS011;56427;51.580;4.656;2023-06-22T10:50:32;19.43;;;15.00;;
69305;SDS011;56427;51.580;4.656;2023-06-22T10:52:58;24.33;;;16.13;;
69305;SDS011;56427;51.580;4.656;2023-06-22T10:55:23;20.47;;;15.57;;
69305;SDS011;56427;51.580;4.656;2023-06-22T10:57:48;30.93;;;17.13;;
69305;SDS011;56427;51.580;4.656;2023-06-22T11:00:14;22.58;;;17.42;;
69305;SDS011;56427;51.580;4.656;2023-06-22T11:02:40;23.75;;;17.67;;
69305;SDS011;56427;51.580;4.656;2023-06-22T11:05:06;25.60;;;19.40;;
69305;SDS011;56427;51.580;4.656;2023-06-22T11:07:31;23.58;;;17.70;;
69305;SDS011;56427;51.580;4.656;2023-06-22T11:09:57;26.33;;;19.17;;
69305;SDS011;56427;51.580;4.656;2023-06-22T11:12:23;26.52;;;19.30;;
69305;SDS011;56427;51.580;4.656;2023-06-22T11:14:48;25.70;;;20.77;;
69305;SDS011;56427;51.580;4.656;2023-06-22T11:17:16;24.90;;;19.57;;
69305;SDS011;56427;51.580;4.656;2023-06-22T11:19:42;25.13;;;19.02;;
69305;SDS011;56427;51.580;4.656;2023-06-22T11:22:07;26.40;;;19.63;;
69305;SDS011;56427;51.580;4.656;2023-06-22T11:24:34;23.30;;;18.83;;
69305;SDS011;56427;51.580;4.656;2023-06-22T11:26:59;24.50;;;20.03;;
69305;SDS011;56427;51.580;4.656;2023-06-22T11:29:25;23.88;;;18.80;;
69305;SDS011;56427;51.580;4.656;2023-06-22T11:31:50;26.07;;;20.30;;
69305;SDS011;56427;51.580;4.656;2023-06-22T11:34:16;28.10;;;21.00;;
69305;SDS011;56427;51.580;4.656;2023-06-22T11:36:41;31.50;;;22.67;;
69305;SDS011;56427;51.580;4.656;2023-06-22T11:39:07;26.73;;;20.97;;
69305;SDS011;56427;51.580;4.656;2023-06-22T11:41:34;26.13;;;19.65;;
69305;SDS011;56427;51.580;4.656;2023-06-22T11:44:00;29.43;;;20.27;;
69305;SDS011;56427;51.580;4.656;2023-06-22T11:46:25;30.43;;;23.97;;
69305;SDS011;56427;51.580;4.656;2023-06-22T11:48:50;34.63;;;25.58;;
69305;SDS011;56427;51.580;4.656;2023-06-22T11:51:16;27.23;;;22.90;;
69305;SDS011;56427;51.580;4.656;2023-06-22T11:53:41;30.37;;;23.53;;
69305;SDS011;56427;51.580;4.656;2023-06-22T11:56:07;35.43;;;26.13;;
69305;SDS011;56427;51.580;4.656;2023-06-22T11:58:32;30.27;;;23.17;;
69305;SDS011;56427;51.580;4.656;2023-06-22T12:00:57;28.83;;;23.30;;
69305;SDS011;56427;51.580;4.656;2023-06-22T12:03:23;31.13;;;23.80;;
69305;SDS011;56427;51.580;4.656;2023-06-22T12:05:49;32.63;;;25.40;;
69305;SDS011;56427;51.580;4.656;2023-06-22T12:08:16;31.23;;;24.20;;
69305;SDS011;56427;51.580;4.656;2023-06-22T12:10:41;33.60;;;24.37;;
69305;SDS011;56427;51.580;4.656;2023-06-22T12:13:07;30.10;;;23.90;;
69305;SDS011;56427;51.580;4.656;2023-06-22T12:15:32;31.40;;;23.83;;
69305;SDS011;56427;51.580;4.656;2023-06-22T12:17:58;31.17;;;24.27;;
69305;SDS011;56427;51.580;4.656;2023-06-22T12:20:23;31.43;;;24.70;;
69305;SDS011;56427;51.580;4.656;2023-06-22T12:22:48;31.67;;;25.53;;
69305;SDS011;56427;51.580;4.656;2023-06-22T12:25:16;33.42;;;25.38;;
69305;SDS011;56427;51.580;4.656;2023-06-22T12:27:41;37.23;;;26.13;;
69305;SDS011;56427;51.580;4.656;2023-06-22T12:30:08;33.60;;;25.37;;
69305;SDS011;56427;51.580;4.656;2023-06-22T12:32:33;33.28;;;26.00;;
69305;SDS011;56427;51.580;4.656;2023-06-22T12:34:59;35.97;;;28.37;;
69305;SDS011;56427;51.580;4.656;2023-06-22T12:37:24;37.38;;;29.08;;
69305;SDS011;56427;51.580;4.656;2023-06-22T12:39:50;31.97;;;25.37;;
69305;SDS011;56427;51.580;4.656;2023-06-22T12:42:15;28.27;;;23.13;;
69305;SDS011;56427;51.580;4.656;2023-06-22T12:44:41;30.98;;;24.08;;
69305;SDS011;56427;51.580;4.656;2023-06-22T12:47:07;29.40;;;22.63;;
69305;SDS011;56427;51.580;4.656;2023-06-22T12:49:36;25.42;;;19.23;;
69305;SDS011;56427;51.580;4.656;2023-06-22T12:52:01;25.67;;;19.47;;
69305;SDS011;56427;51.580;4.656;2023-06-22T12:54:27;20.40;;;17.52;;
69305;SDS011;56427;51.580;4.656;2023-06-22T12:56:56;20.08;;;16.48;;
69305;SDS011;56427;51.580;4.656;2023-06-22T12:59:21;19.13;;;15.20;;
69305;SDS011;56427;51.580;4.656;2023-06-22T13:01:47;19.67;;;15.43;;
69305;SDS011;56427;51.580;4.656;2023-06-22T13:04:12;19.50;;;16.10;;
69305;SDS011;56427;51.580;4.656;2023-06-22T13:06:40;20.47;;;16.40;;
69305;SDS011;56427;51.580;4.656;2023-06-22T13:09:06;20.77;;;16.35;;
69305;SDS011;56427;51.580;4.656;2023-06-22T13:11:31;21.73;;;18.23;;
69305;SDS011;56427;51.580;4.656;2023-06-22T13:13:56;24.80;;;18.33;;
69305;SDS011;56427;51.580;4.656;2023-06-22T13:16:22;21.30;;;17.37;;
69305;SDS011;56427;51.580;4.656;2023-06-22T13:18:47;22.17;;;17.73;;
69305;SDS011;56427;51.580;4.656;2023-06-22T13:21:12;25.17;;;18.67;;
69305;SDS011;56427;51.580;4.656;2023-06-22T13:23:39;22.05;;;18.98;;
69305;SDS011;56427;51.580;4.656;2023-06-22T13:26:04;25.00;;;20.13;;
69305;SDS011;56427;51.580;4.656;2023-06-22T13:28:30;23.67;;;19.40;;
69305;SDS011;56427;51.580;4.656;2023-06-22T13:30:55;25.07;;;20.57;;
69305;SDS011;56427;51.580;4.656;2023-06-22T13:33:20;25.38;;;21.65;;
69305;SDS011;56427;51.580;4.656;2023-06-22T13:35:46;25.07;;;20.80;;
69305;SDS011;56427;51.580;4.656;2023-06-22T13:38:11;29.27;;;22.70;;
69305;SDS011;56427;51.580;4.656;2023-06-22T13:40:37;29.40;;;22.20;;
69305;SDS011;56427;51.580;4.656;2023-06-22T13:43:03;27.10;;;22.52;;
69305;SDS011;56427;51.580;4.656;2023-06-22T13:45:29;28.95;;;23.83;;
69305;SDS011;56427;51.580;4.656;2023-06-22T13:47:55;31.30;;;25.20;;
69305;SDS011;56427;51.580;4.656;2023-06-22T13:50:20;33.43;;;27.07;;
69305;SDS011;56427;51.580;4.656;2023-06-22T13:52:45;34.40;;;26.35;;
69305;SDS011;56427;51.580;4.656;2023-06-22T13:55:11;33.43;;;26.30;;
69305;SDS011;56427;51.580;4.656;2023-06-22T13:57:39;34.38;;;28.40;;
69305;SDS011;56427;51.580;4.656;2023-06-22T14:00:05;32.87;;;28.17;;
69305;SDS011;56427;51.580;4.656;2023-06-22T14:02:31;35.58;;;30.63;;
69305;SDS011;56427;51.580;4.656;2023-06-22T14:04:56;31.23;;;27.17;;
69305;SDS011;56427;51.580;4.656;2023-06-22T14:07:21;32.33;;;26.98;;
69305;SDS011;56427;51.580;4.656;2023-06-22T14:09:47;41.63;;;28.40;;
69305;SDS011;56427;51.580;4.656;2023-06-22T14:12:12;36.50;;;31.37;;
69305;SDS011;56427;51.580;4.656;2023-06-22T14:14:38;33.53;;;28.05;;
69305;SDS011;56427;51.580;4.656;2023-06-22T14:17:04;30.90;;;26.50;;
69305;SDS011;56427;51.580;4.656;2023-06-22T14:19:29;36.83;;;30.55;;
69305;SDS011;56427;51.580;4.656;2023-06-22T14:21:55;33.83;;;29.07;;
69305;SDS011;56427;51.580;4.656;2023-06-22T14:24:21;34.58;;;29.20;;
69305;SDS011;56427;51.580;4.656;2023-06-22T14:26:47;33.07;;;27.33;;
69305;SDS011;56427;51.580;4.656;2023-06-22T14:29:12;36.20;;;29.73;;
69305;SDS011;56427;51.580;4.656;2023-06-22T14:31:38;38.40;;;31.10;;
69305;SDS011;56427;51.580;4.656;2023-06-22T14:34:03;43.67;;;36.60;;
69305;SDS011;56427;51.580;4.656;2023-06-22T14:36:30;39.83;;;31.70;;